Terminal Aerodrome Forecast
Issued by NWS

Home | Current Version | Previous Version | Text Only | Print | Product List | Glossary On
Versions: 1 2 3 4 5 6 7 8 9 10 11 12 13 14
000
FTUS44 KLIX 230500
TAFGPT
TAF
KGPT 230530Z 2306/2406 34004KT P6SM SKC
     FM231100 35002KT 4SM BR SKC
     FM231330 02005KT P6SM FEW025
     FM231900 18007KT P6SM FEW040=

USA.gov is the U.S. government's official web portal to all federal, state and local government web resources and services.